createdAt,value
2018-12-24T00:02:15.774Z,101779.83
2018-12-24T00:05:04.122Z,101781.25
2018-12-24T00:07:52.197Z,101784.38
2018-12-24T00:10:40.256Z,101772.95
2018-12-24T00:13:28.351Z,101779.20
2018-12-24T00:16:16.381Z,101800.50
2018-12-24T00:19:04.517Z,101800.56
2018-12-24T00:21:52.610Z,101806.83
2018-12-24T00:25:01.286Z,101823.37
2018-12-24T00:30:29.566Z,101827.39
2018-12-24T00:36:25.066Z,101846.20
2018-12-24T00:39:13.520Z,101841.14
2018-12-24T00:42:01.567Z,101862.38
2018-12-24T00:50:37.317Z,101869.73
2018-12-24T00:53:25.244Z,101886.87
2018-12-24T00:56:13.333Z,101888.41
2018-12-24T00:59:01.372Z,101892.19
2018-12-24T01:01:49.311Z,101894.74
2018-12-24T01:07:44.427Z,101902.81
2018-12-24T01:10:52.968Z,101909.98
2018-12-24T01:13:40.997Z,101920.09
2018-12-24T01:16:29.081Z,101924.94
2018-12-24T01:19:17.173Z,101929.27
2018-12-24T01:22:05.075Z,101925.97
2018-12-24T01:27:47.098Z,101941.00
2018-12-24T01:30:35.048Z,101943.74
2018-12-24T01:33:23.103Z,101954.69
2018-12-24T01:36:11.181Z,101958.61
2018-12-24T01:38:40.051Z,101961.28
2018-12-24T01:41:28.001Z,101970.23
2018-12-24T01:44:16.041Z,101978.23
2018-12-24T01:47:04.133Z,101979.78
2018-12-24T01:52:59.681Z,101980.23
2018-12-24T01:55:48.072Z,101991.30
2018-12-24T02:01:29.901Z,101996.37
2018-12-24T02:04:17.858Z,102008.91
2018-12-24T02:07:05.904Z,102014.53
2018-12-24T02:09:53.993Z,102011.98
2018-12-24T02:12:42.589Z,102020.82
2018-12-24T02:15:31.883Z,102029.39
2018-12-24T02:18:19.788Z,102038.05
2018-12-24T02:21:07.943Z,102049.37
2018-12-24T02:23:55.890Z,102052.04
2018-12-24T02:26:43.989Z,102053.63
2018-12-24T02:32:39.262Z,102054.28
2018-12-24T02:35:27.318Z,102054.19
2018-12-24T02:41:08.965Z,102054.92
2018-12-24T02:43:57.308Z,102065.19
2018-12-24T02:46:45.231Z,102080.17
2018-12-24T02:52:40.450Z,102091.94
2018-12-24T02:55:28.493Z,102097.63
2018-12-24T02:58:16.581Z,102099.13
2018-12-24T03:01:04.497Z,102102.58
2018-12-24T03:03:52.625Z,102101.36
2018-12-24T03:06:40.703Z,102111.47
2018-12-24T03:09:28.782Z,102111.67
2018-12-24T03:12:16.677Z,102116.91
2018-12-24T03:15:04.913Z,102112.04
2018-12-24T03:21:00.117Z,102116.10
2018-12-24T03:23:48.185Z,102104.48
2018-12-24T03:26:36.279Z,102118.37
2018-12-24T03:32:18.137Z,102105.66
2018-12-24T03:35:06.072Z,102120.45
2018-12-24T03:37:54.107Z,102115.33
2018-12-24T03:40:42.199Z,102123.00
2018-12-24T03:43:30.300Z,102120.08
2018-12-24T03:46:18.324Z,102125.48
2018-12-24T03:49:06.440Z,102124.87
2018-12-24T03:51:54.490Z,102135.80
2018-12-24T03:54:42.890Z,102134.00
2018-12-24T03:57:30.936Z,102146.38
2018-12-24T04:00:18.909Z,102151.33
2018-12-24T04:03:06.988Z,102161.03
2018-12-24T04:05:54.925Z,102167.52
2018-12-24T04:08:43.323Z,102175.91
2018-12-24T04:11:12.254Z,102176.55
2018-12-24T04:16:53.393Z,102191.34
2018-12-24T04:19:41.465Z,102191.88
2018-12-24T04:22:29.563Z,102202.67
2018-12-24T04:28:24.782Z,102218.26
2018-12-24T04:31:12.865Z,102236.77
2018-12-24T04:34:00.921Z,102229.80
2018-12-24T04:36:49.024Z,102233.93
2018-12-24T04:39:37.086Z,102233.58
2018-12-24T04:42:25.501Z,102239.58
2018-12-24T04:45:13.451Z,102243.97
2018-12-24T04:48:01.535Z,102249.97
2018-12-24T04:53:56.747Z,102267.64
2018-12-24T04:59:51.936Z,102281.77
2018-12-24T05:05:47.177Z,102285.23
2018-12-24T05:08:35.229Z,102299.72
2018-12-24T05:11:23.317Z,102308.52
2018-12-24T05:14:11.269Z,102322.69
2018-12-24T05:20:06.471Z,102336.19
2018-12-24T05:22:54.556Z,102344.59
2018-12-24T05:28:50.290Z,102368.27
2018-12-24T05:31:38.491Z,102363.45
2018-12-24T05:34:26.383Z,102373.41
2018-12-24T05:37:14.853Z,102383.70
2018-12-24T05:43:10.003Z,102396.14
2018-12-24T05:45:58.055Z,102397.05
2018-12-24T05:48:45.993Z,102404.78
2018-12-24T05:51:34.057Z,102409.80
2018-12-24T05:54:22.547Z,102414.66
2018-12-24T05:57:10.487Z,102411.56
2018-12-24T05:59:58.603Z,102413.61
2018-12-24T06:02:46.516Z,102415.16
2018-12-24T06:05:34.618Z,102421.97
2018-12-24T06:08:03.829Z,102424.36
2018-12-24T06:10:52.372Z,102433.56
2018-12-24T06:13:40.406Z,102436.70
2018-12-24T06:16:28.562Z,102445.38
2018-12-24T06:19:16.607Z,102450.23
2018-12-24T06:22:04.697Z,102460.11
2018-12-24T06:27:59.773Z,102472.09
2018-12-24T06:30:47.830Z,102489.22
2018-12-24T06:33:35.979Z,102482.42
2018-12-24T06:36:24.019Z,102492.41
2018-12-24T06:39:12.106Z,102489.20
2018-12-24T06:42:00.163Z,102490.00
2018-12-24T06:47:41.574Z,102498.67
2018-12-24T06:50:29.656Z,102496.95
2018-12-24T06:59:19.109Z,102547.48
2018-12-24T07:05:00.651Z,102551.52
2018-12-24T07:07:48.737Z,102547.72
2018-12-24T07:10:36.831Z,102553.75
2018-12-24T07:13:24.912Z,102559.23
2018-12-24T07:16:13.040Z,102572.42
2018-12-24T07:21:55.168Z,102592.78
2018-12-24T07:24:43.443Z,102596.09
2018-12-24T07:27:31.389Z,102608.88
2018-12-24T07:30:19.439Z,102620.95
2018-12-24T07:33:07.385Z,102625.89
2018-12-24T07:35:55.430Z,102621.82
2018-12-24T07:38:43.569Z,102627.91
2018-12-24T07:41:31.648Z,102639.05
2018-12-24T07:44:24.134Z,102650.16
2018-12-24T07:47:09.670Z,102653.59
2018-12-24T07:55:45.197Z,102660.43
2018-12-24T07:58:33.129Z,102664.84
2018-12-24T08:01:21.222Z,102665.58
2018-12-24T08:04:09.261Z,102671.00
2018-12-24T08:06:57.358Z,102663.77
2018-12-24T08:09:45.442Z,102672.02
2018-12-24T08:12:33.373Z,102668.99
2018-12-24T08:15:21.459Z,102681.80
2018-12-24T08:18:09.547Z,102674.37
2018-12-24T08:20:57.447Z,102677.97
2018-12-24T08:23:45.568Z,102687.03
2018-12-24T08:26:33.855Z,102691.50
2018-12-24T08:29:21.919Z,102689.89
2018-12-24T08:32:11.526Z,102690.92
2018-12-24T08:34:59.629Z,102695.39
2018-12-24T08:37:48.025Z,102692.75
2018-12-24T08:40:35.919Z,102701.82
2018-12-24T08:43:24.002Z,102703.25
2018-12-24T08:46:12.425Z,102704.38
2018-12-24T08:48:41.289Z,102715.47
2018-12-24T08:51:29.374Z,102707.00
2018-12-24T08:57:24.591Z,102719.13
2018-12-24T09:00:12.479Z,102708.27
2018-12-24T09:03:00.478Z,102702.67
2018-12-24T09:05:48.525Z,102704.11
2018-12-24T09:08:36.610Z,102709.23
2018-12-24T09:11:24.681Z,102718.48
2018-12-24T09:14:12.819Z,102730.14
2018-12-24T09:17:00.899Z,102740.97
2018-12-24T09:19:49.002Z,102741.99
2018-12-24T09:22:37.038Z,102743.66
2018-12-24T09:25:25.270Z,102740.09
2018-12-24T09:28:13.618Z,102746.90
2018-12-24T09:31:05.238Z,102749.03
2018-12-24T09:33:53.274Z,102749.23
2018-12-24T09:36:41.345Z,102754.63
2018-12-24T09:39:29.385Z,102763.26
2018-12-24T09:42:17.844Z,102752.06
2018-12-24T09:45:05.878Z,102744.65
2018-12-24T09:47:53.970Z,102761.55
2018-12-24T09:50:42.108Z,102761.80
2018-12-24T09:53:30.095Z,102757.76
2018-12-24T09:56:18.169Z,102760.48
2018-12-24T09:59:06.068Z,102756.83
2018-12-24T10:01:54.223Z,102758.81
2018-12-24T10:07:52.307Z,102755.91
2018-12-24T10:10:40.435Z,102763.05
2018-12-24T10:13:28.527Z,102775.38
2018-12-24T10:16:16.429Z,102786.53
2018-12-24T10:19:04.588Z,102776.89
2018-12-24T10:27:26.707Z,102778.67
2018-12-24T10:30:14.639Z,102776.43
2018-12-24T10:33:03.013Z,102783.15
2018-12-24T10:35:51.222Z,102767.05
2018-12-24T10:38:39.303Z,102784.27
2018-12-24T10:41:29.705Z,102779.77
2018-12-24T10:44:17.520Z,102782.55
2018-12-24T10:47:05.614Z,102783.20
2018-12-24T10:49:53.690Z,102771.75
2018-12-24T10:55:48.861Z,102778.37
2018-12-24T10:58:36.906Z,102774.85
2018-12-24T11:01:25.349Z,102768.35
2018-12-24T11:04:13.386Z,102766.09
2018-12-24T11:07:01.340Z,102769.69
2018-12-24T11:12:56.857Z,102779.97
2018-12-24T11:15:45.014Z,102786.11
2018-12-24T11:18:33.094Z,102770.50
2018-12-24T11:24:28.323Z,102782.23
2018-12-24T11:27:16.394Z,102773.98
2018-12-24T11:30:04.435Z,102772.77
2018-12-24T11:32:52.390Z,102761.66
2018-12-24T11:35:40.518Z,102766.88
2018-12-24T11:38:28.879Z,102773.28
2018-12-24T11:41:17.038Z,102762.89
2018-12-24T11:44:05.131Z,102765.91
2018-12-24T11:46:53.481Z,102758.17
2018-12-24T11:49:41.457Z,102756.62
2018-12-24T11:52:29.403Z,102761.88
2018-12-24T11:55:17.494Z,102758.98
2018-12-24T11:58:13.217Z,102758.54
2018-12-24T12:00:55.337Z,102753.36
2018-12-24T12:03:43.432Z,102760.58
2018-12-24T12:09:38.665Z,102742.95
2018-12-24T12:15:42.384Z,102743.41
2018-12-24T12:18:23.570Z,102746.17
2018-12-24T12:21:11.655Z,102743.60
2018-12-24T12:23:59.680Z,102742.41
2018-12-24T12:26:47.770Z,102745.09
2018-12-24T12:29:35.861Z,102746.58
2018-12-24T12:32:23.898Z,102738.70
2018-12-24T12:35:12.085Z,102728.48
2018-12-24T12:38:00.117Z,102728.41
2018-12-24T12:40:48.224Z,102735.21
2018-12-24T12:43:36.266Z,102721.45
2018-12-24T12:46:24.362Z,102721.45
2018-12-24T12:49:12.322Z,102723.56
2018-12-24T12:52:00.401Z,102722.34
2018-12-24T12:54:48.477Z,102720.19
2018-12-24T12:57:17.731Z,102721.30
2018-12-24T13:00:05.682Z,102727.88
2018-12-24T13:06:02.870Z,102729.09
2018-12-24T13:08:50.974Z,102737.44
2018-12-24T13:11:39.405Z,102725.67
2018-12-24T13:14:27.486Z,102726.22
2018-12-24T13:17:15.516Z,102734.05
2018-12-24T13:20:03.600Z,102725.53
2018-12-24T13:22:51.634Z,102722.75
2018-12-24T13:25:39.725Z,102725.54
2018-12-24T13:28:27.827Z,102726.10
2018-12-24T13:31:15.728Z,102735.77
2018-12-24T13:34:03.814Z,102729.33
2018-12-24T13:36:51.720Z,102737.86
2018-12-24T13:39:39.894Z,102745.11
2018-12-24T13:42:28.100Z,102751.32
2018-12-24T13:48:10.646Z,102757.86
2018-12-24T13:50:58.713Z,102758.45
2018-12-24T13:53:46.754Z,102751.43
2018-12-24T13:56:34.891Z,102750.02
2018-12-24T13:59:23.546Z,102745.93
2018-12-24T14:02:12.818Z,102742.77
2018-12-24T14:05:00.851Z,102743.40
2018-12-24T14:07:49.284Z,102737.45
2018-12-24T14:10:37.334Z,102739.08
2018-12-24T14:13:25.466Z,102737.33
2018-12-24T14:16:16.825Z,102732.16
2018-12-24T14:19:03.459Z,102743.54
2018-12-24T14:21:51.503Z,102741.38
2018-12-24T14:24:39.591Z,102758.60
2018-12-24T14:30:34.771Z,102757.90
2018-12-24T14:33:22.860Z,102777.16
2018-12-24T14:36:10.889Z,102786.30
2018-12-24T14:38:59.305Z,102794.75
2018-12-24T14:41:28.244Z,102796.09
2018-12-24T14:44:16.330Z,102794.83
2018-12-24T14:46:45.280Z,102803.72
2018-12-24T14:49:33.243Z,102803.31
2018-12-24T14:52:21.133Z,102812.08
2018-12-24T14:55:09.211Z,102810.94
2018-12-24T14:57:57.278Z,102811.75
2018-12-24T15:00:45.355Z,102803.84
2018-12-24T15:03:33.396Z,102798.67
2018-12-24T15:06:21.481Z,102806.54
2018-12-24T15:09:09.525Z,102795.36
2018-12-24T15:11:57.691Z,102795.73
2018-12-24T15:14:45.781Z,102793.48
2018-12-24T15:17:33.846Z,102793.31
2018-12-24T15:20:22.206Z,102793.67
2018-12-24T15:23:10.237Z,102803.70
2018-12-24T15:25:39.224Z,102815.48
2018-12-24T15:28:27.391Z,102814.98
2018-12-24T15:31:15.474Z,102822.84
2018-12-24T15:37:10.643Z,102835.20
2018-12-24T15:39:58.677Z,102833.03
2018-12-24T15:42:46.881Z,102830.78
2018-12-24T15:45:35.306Z,102836.73
2018-12-24T15:48:23.200Z,102837.95
2018-12-24T15:51:11.294Z,102829.34
2018-12-24T15:53:59.237Z,102837.28
2018-12-24T15:59:54.260Z,102835.80
2018-12-24T16:02:42.351Z,102842.16
2018-12-24T16:05:30.386Z,102841.70
2018-12-24T16:07:59.574Z,102833.77
2018-12-24T16:10:47.605Z,102833.99
2018-12-24T16:13:36.069Z,102852.17
2018-12-24T16:16:24.096Z,102852.53
2018-12-24T16:19:12.030Z,102862.19
2018-12-24T16:25:07.518Z,102858.27
2018-12-24T16:27:55.471Z,102855.78
2018-12-24T16:30:43.545Z,102857.86
2018-12-24T16:33:31.481Z,102854.42
2018-12-24T16:36:19.563Z,102858.08
2018-12-24T16:39:07.523Z,102848.38
2018-12-24T16:41:55.563Z,102859.75
2018-12-24T16:44:43.485Z,102858.39
2018-12-24T16:50:25.726Z,102851.94
2018-12-24T16:53:13.807Z,102854.87
2018-12-24T16:56:01.886Z,102845.58
2018-12-24T16:58:50.325Z,102846.30
2018-12-24T17:01:38.361Z,102843.69
2018-12-24T17:04:26.444Z,102842.05
2018-12-24T17:07:14.671Z,102848.87
2018-12-24T17:10:02.770Z,102851.08
2018-12-24T17:12:50.676Z,102852.84
2018-12-24T17:15:38.785Z,102850.58
2018-12-24T17:18:26.823Z,102853.52
2018-12-24T17:21:14.912Z,102854.28
2018-12-24T17:24:02.942Z,102855.59
2018-12-24T17:26:51.027Z,102863.62
2018-12-24T17:29:38.939Z,102858.52
2018-12-24T17:32:27.033Z,102860.42
2018-12-24T17:35:14.927Z,102865.92
2018-12-24T17:38:03.031Z,102868.04
2018-12-24T17:43:58.201Z,102885.77
2018-12-24T17:46:46.135Z,102888.55
2018-12-24T17:49:34.174Z,102883.05
2018-12-24T17:52:22.281Z,102885.58
2018-12-24T17:55:10.314Z,102887.65
2018-12-24T17:57:58.390Z,102890.53
2018-12-24T18:00:46.437Z,102901.44
2018-12-24T18:03:34.379Z,102902.20
2018-12-24T18:06:22.410Z,102905.53
2018-12-24T18:09:10.511Z,102911.39
2018-12-24T18:11:58.589Z,102903.41
2018-12-24T18:14:46.519Z,102914.42
2018-12-24T18:17:34.622Z,102913.87
2018-12-24T18:20:22.960Z,102922.41
2018-12-24T18:26:04.670Z,102938.41
2018-12-24T18:28:52.753Z,102936.84
2018-12-24T18:31:21.829Z,102948.77
2018-12-24T18:34:09.808Z,102951.66
2018-12-24T18:36:57.817Z,102951.50
2018-12-24T18:39:47.128Z,102946.69
2018-12-24T18:42:35.663Z,102941.73
2018-12-24T18:45:04.745Z,102946.43
2018-12-24T18:47:52.779Z,102954.52
2018-12-24T18:50:41.010Z,102957.90
2018-12-24T18:53:29.052Z,102956.68
2018-12-24T18:56:17.152Z,102955.59
2018-12-24T19:02:12.341Z,102964.78
2018-12-24T19:05:00.641Z,102962.52
2018-12-24T19:07:48.718Z,102966.76
2018-12-24T19:10:36.800Z,102976.87
2018-12-24T19:13:06.035Z,102975.05
2018-12-24T19:15:54.110Z,102978.84
2018-12-24T19:18:42.160Z,102980.34
2018-12-24T19:21:30.241Z,102983.02
2018-12-24T19:24:18.313Z,102984.69
2018-12-24T19:27:06.363Z,102989.80
2018-12-24T19:29:54.467Z,102991.77
2018-12-24T19:32:42.609Z,102988.69
2018-12-24T19:35:30.645Z,102986.57
2018-12-24T19:38:18.829Z,102982.28
2018-12-24T19:41:06.868Z,102972.27
2018-12-24T19:43:54.958Z,102964.73
2018-12-24T19:49:49.992Z,102967.64
2018-12-24T19:52:37.925Z,102968.34
2018-12-24T19:55:25.998Z,102972.13
2018-12-24T20:01:07.405Z,102976.66
2018-12-24T20:03:55.343Z,102985.95
2018-12-24T20:09:50.365Z,102989.44
2018-12-24T20:12:38.474Z,102991.61
2018-12-24T20:15:26.558Z,102989.58
2018-12-24T20:18:14.614Z,102998.97
2018-12-24T20:21:02.697Z,103002.86
2018-12-24T20:23:31.617Z,103002.45
2018-12-24T20:26:19.657Z,103005.29
2018-12-24T20:29:08.060Z,102999.02
2018-12-24T20:31:56.101Z,103007.55
2018-12-24T20:34:44.178Z,103009.53
2018-12-24T20:37:32.217Z,103006.55
2018-12-24T20:40:20.293Z,103002.77
2018-12-24T20:43:08.380Z,102994.18
2018-12-24T20:45:56.419Z,102983.25
2018-12-24T20:48:44.545Z,102992.42
2018-12-24T20:51:32.587Z,102995.26
2018-12-24T20:54:20.668Z,103004.46
2018-12-24T20:57:08.707Z,103001.48
2018-12-24T21:00:03.926Z,103010.33
2018-12-24T21:02:51.962Z,103010.42
2018-12-24T21:05:40.047Z,103014.67
2018-12-24T21:08:28.094Z,103009.61
2018-12-24T21:11:16.184Z,103006.37
2018-12-24T21:14:04.123Z,103003.94
2018-12-24T21:16:52.170Z,103003.48
2018-12-24T21:22:34.134Z,103005.29
2018-12-24T21:25:22.213Z,103005.65
2018-12-24T21:28:10.142Z,103003.22
2018-12-24T21:30:58.286Z,103008.77
2018-12-24T21:36:53.457Z,103018.58
2018-12-24T21:39:41.423Z,103018.67
2018-12-24T21:48:30.517Z,103016.54
2018-12-24T21:51:18.605Z,103023.67
2018-12-24T21:57:00.259Z,103008.14
2018-12-24T21:59:48.330Z,103013.33
2018-12-24T22:02:36.368Z,103009.58
2018-12-24T22:05:24.439Z,103014.05
2018-12-24T22:08:12.477Z,103025.03
2018-12-24T22:11:00.427Z,103026.80
2018-12-24T22:13:48.441Z,103032.08
2018-12-24T22:16:36.344Z,103026.12
2018-12-24T22:19:24.430Z,103021.14
2018-12-24T22:22:12.328Z,103014.09
2018-12-24T22:30:47.382Z,102998.66
2018-12-24T22:33:35.458Z,103009.49
2018-12-24T22:36:16.471Z,103009.90
2018-12-24T22:39:04.421Z,103010.58
2018-12-24T22:41:52.470Z,103014.38
2018-12-24T22:44:40.548Z,103013.02
2018-12-24T22:47:28.688Z,103012.66
2018-12-24T22:50:16.740Z,103005.06
2018-12-24T22:53:04.810Z,102999.06
2018-12-24T22:55:52.894Z,103000.28
2018-12-24T22:58:21.750Z,102993.50
2018-12-24T23:00:50.786Z,102995.22
2018-12-24T23:03:38.870Z,102991.06
2018-12-24T23:09:33.911Z,102994.64
2018-12-24T23:12:22.008Z,102996.89
2018-12-24T23:15:09.923Z,103000.37
2018-12-24T23:17:58.002Z,102993.05
2018-12-24T23:20:46.074Z,102989.84
2018-12-24T23:23:34.018Z,102985.91
2018-12-24T23:26:21.911Z,102984.19
2018-12-24T23:29:09.999Z,102984.92
2018-12-24T23:31:58.034Z,102980.13
2018-12-24T23:34:46.124Z,102981.04
2018-12-24T23:37:34.211Z,102975.67
2018-12-24T23:40:22.343Z,102975.14
2018-12-24T23:43:10.401Z,102983.22
2018-12-24T23:45:58.470Z,102985.91
2018-12-24T23:48:46.498Z,102979.41
2018-12-24T23:51:34.545Z,102983.84
2018-12-24T23:54:22.485Z,102977.28
2018-12-24T23:57:10.529Z,102972.80
2018-12-24T23:59:58.605Z,102975.55
